createdAt,value
2019-04-26T00:00:11.964Z,49.23
2019-04-26T00:01:11.813Z,50.00
2019-04-26T00:02:12.284Z,50.67
2019-04-26T00:03:12.118Z,50.57
2019-04-26T00:04:12.098Z,50.38
2019-04-26T00:05:11.216Z,50.48
2019-04-26T00:06:12.335Z,50.57
2019-04-26T00:07:11.193Z,50.95
2019-04-26T00:08:11.809Z,50.95
2019-04-26T00:09:11.816Z,50.48
2019-04-26T00:10:11.752Z,50.76
2019-04-26T00:11:11.878Z,50.86
2019-04-26T00:12:12.140Z,50.95
2019-04-26T00:13:12.372Z,50.48
2019-04-26T00:14:12.311Z,49.43
2019-04-26T00:15:12.127Z,49.52
2019-04-26T00:16:11.715Z,49.43
2019-04-26T00:17:11.534Z,48.28
2019-04-26T00:18:11.836Z,47.61
2019-04-26T00:19:11.172Z,47.53
2019-04-26T00:20:11.915Z,47.82
2019-04-26T00:21:11.726Z,47.73
2019-04-26T00:22:11.016Z,47.73
2019-04-26T00:23:11.860Z,47.73
2019-04-26T00:24:11.731Z,48.21
2019-04-26T00:25:11.425Z,47.92
2019-04-26T00:26:11.055Z,48.21
2019-04-26T00:27:11.387Z,48.49
2019-04-26T00:28:11.714Z,48.39
2019-04-26T00:29:11.397Z,48.11
2019-04-26T00:30:12.095Z,48.39
2019-04-26T00:31:11.521Z,48.57
2019-04-26T00:32:12.170Z,48.47
2019-04-26T00:33:12.432Z,48.95
2019-04-26T00:34:10.969Z,48.85
2019-04-26T00:35:11.615Z,48.66
2019-04-26T00:36:10.852Z,48.47
2019-04-26T00:37:11.590Z,48.75
2019-04-26T00:38:11.618Z,48.85
2019-04-26T00:39:11.846Z,49.14
2019-04-26T00:40:11.690Z,49.33
2019-04-26T00:41:10.787Z,49.62
2019-04-26T00:42:10.778Z,49.23
2019-04-26T00:43:10.767Z,49.23
2019-04-26T00:44:10.759Z,49.52
2019-04-26T00:45:10.753Z,49.90
2019-04-26T00:46:10.731Z,49.52
2019-04-26T00:47:10.726Z,50.00
2019-04-26T00:48:10.712Z,49.90
2019-04-26T00:49:10.698Z,49.33
2019-04-26T00:50:10.690Z,48.38
2019-04-26T00:51:10.672Z,48.38
2019-04-26T00:52:10.662Z,48.66
2019-04-26T00:53:10.644Z,48.47
2019-04-26T00:54:10.634Z,48.18
2019-04-26T00:55:10.626Z,47.52
2019-04-26T00:56:10.615Z,47.23
2019-04-26T00:57:10.599Z,47.80
2019-04-26T00:58:10.593Z,47.71
2019-04-26T00:59:10.584Z,47.52
2019-04-26T01:00:10.562Z,47.80
2019-04-26T01:01:10.560Z,47.03
2019-04-26T01:02:10.601Z,47.23
2019-04-26T01:03:10.533Z,47.03
2019-04-26T01:04:10.519Z,47.03
2019-04-26T01:05:10.509Z,47.23
2019-04-26T01:06:10.497Z,47.42
2019-04-26T01:07:10.485Z,47.80
2019-04-26T01:08:10.475Z,47.80
2019-04-26T01:09:10.461Z,47.89
2019-04-26T01:10:10.449Z,47.23
2019-04-26T01:11:10.434Z,47.13
2019-04-26T01:12:10.422Z,47.13
2019-04-26T01:13:10.406Z,46.84
2019-04-26T01:14:10.399Z,47.23
2019-04-26T01:15:10.388Z,47.89
2019-04-26T01:16:10.372Z,47.71
2019-04-26T01:17:10.362Z,47.23
2019-04-26T01:18:10.351Z,47.13
2019-04-26T01:19:10.337Z,46.84
2019-04-26T01:20:10.334Z,47.23
2019-04-26T01:21:10.315Z,47.89
2019-04-26T01:22:10.305Z,47.89
2019-04-26T01:23:10.285Z,47.80
2019-04-26T01:24:10.282Z,46.56
2019-04-26T01:25:10.267Z,46.27
2019-04-26T01:26:10.253Z,46.37
2019-04-26T01:27:10.234Z,46.66
2019-04-26T01:28:10.230Z,46.66
2019-04-26T01:29:10.223Z,46.46
2019-04-26T01:30:10.200Z,46.46
2019-04-26T01:31:10.195Z,46.56
2019-04-26T01:32:10.185Z,46.48
2019-04-26T01:33:10.173Z,46.84
2019-04-26T01:34:10.165Z,46.67
2019-04-26T01:35:10.148Z,46.84
2019-04-26T01:36:13.031Z,47.03
2019-04-26T01:37:10.126Z,46.46
2019-04-26T01:38:10.110Z,46.94
2019-04-26T01:39:10.102Z,47.13
2019-04-26T01:40:10.090Z,46.56
2019-04-26T01:41:10.072Z,46.27
2019-04-26T01:42:10.075Z,45.89
2019-04-26T01:43:10.061Z,46.77
2019-04-26T01:44:10.039Z,46.87
2019-04-26T01:45:10.028Z,46.94
2019-04-26T01:46:10.013Z,47.03
2019-04-26T01:47:10.001Z,47.03
2019-04-26T01:48:09.997Z,47.23
2019-04-26T01:49:09.979Z,47.71
2019-04-26T01:50:09.971Z,47.89
2019-04-26T01:51:09.958Z,47.80
2019-04-26T01:52:09.946Z,48.18
2019-04-26T01:53:09.934Z,48.47
2019-04-26T01:54:09.922Z,48.47
2019-04-26T01:55:09.907Z,48.47
2019-04-26T01:56:09.907Z,48.38
2019-04-26T01:57:09.890Z,48.57
2019-04-26T01:58:09.868Z,48.66
2019-04-26T01:59:09.861Z,48.66
2019-04-26T02:00:09.849Z,48.85
2019-04-26T02:01:09.837Z,48.75
2019-04-26T02:02:09.823Z,48.66
2019-04-26T02:03:09.812Z,49.43
2019-04-26T02:04:09.810Z,48.47
2019-04-26T02:05:09.786Z,48.75
2019-04-26T02:06:09.776Z,48.85
2019-04-26T02:07:09.772Z,49.04
2019-04-26T02:08:09.751Z,49.14
2019-04-26T02:09:09.741Z,49.14
2019-04-26T02:10:09.731Z,49.23
2019-04-26T02:11:09.719Z,49.62
2019-04-26T02:12:09.703Z,49.23
2019-04-26T02:13:09.702Z,49.30
2019-04-26T02:14:09.680Z,49.71
2019-04-26T02:15:09.668Z,49.62
2019-04-26T02:16:09.656Z,50.00
2019-04-26T02:17:09.657Z,49.80
2019-04-26T02:18:09.638Z,49.90
2019-04-26T02:19:09.622Z,50.26
2019-04-26T02:20:09.611Z,50.55
2019-04-26T02:21:09.596Z,50.55
2019-04-26T02:22:09.589Z,50.35
2019-04-26T02:23:09.569Z,50.93
2019-04-26T02:24:09.560Z,51.03
2019-04-26T02:25:09.549Z,50.64
2019-04-26T02:26:09.539Z,50.93
2019-04-26T02:27:09.527Z,50.84
2019-04-26T02:28:09.511Z,50.93
2019-04-26T02:29:09.509Z,50.26
2019-04-26T02:30:09.492Z,50.64
2019-04-26T02:31:09.477Z,50.07
2019-04-26T02:32:09.468Z,50.16
2019-04-26T02:33:09.454Z,49.78
2019-04-26T02:34:09.444Z,49.98
2019-04-26T02:35:09.425Z,50.26
2019-04-26T02:36:09.416Z,50.64
2019-04-26T02:37:09.413Z,50.74
2019-04-26T02:38:09.386Z,50.16
2019-04-26T02:39:09.379Z,49.88
2019-04-26T02:40:09.368Z,49.78
2019-04-26T02:41:09.355Z,49.88
2019-04-26T02:42:09.344Z,49.59
2019-04-26T02:43:09.341Z,50.26
2019-04-26T02:44:09.314Z,50.45
2019-04-26T02:45:09.323Z,50.35
2019-04-26T02:46:09.322Z,50.64
2019-04-26T02:47:09.286Z,49.59
2019-04-26T02:48:09.270Z,49.69
2019-04-26T02:49:09.271Z,49.88
2019-04-26T02:50:09.255Z,49.78
2019-04-26T02:51:09.237Z,49.49
2019-04-26T02:52:09.227Z,49.59
2019-04-26T02:53:09.212Z,49.69
2019-04-26T02:54:09.211Z,49.21
2019-04-26T02:55:09.186Z,49.30
2019-04-26T02:56:09.174Z,49.33
2019-04-26T02:57:09.161Z,49.43
2019-04-26T02:58:09.147Z,49.33
2019-04-26T02:59:09.138Z,48.57
2019-04-26T03:00:09.122Z,48.38
2019-04-26T03:01:09.114Z,48.38
2019-04-26T03:02:09.109Z,48.28
2019-04-26T03:03:09.086Z,47.80
2019-04-26T03:04:09.078Z,47.13
2019-04-26T03:05:09.086Z,47.71
2019-04-26T03:06:09.057Z,47.71
2019-04-26T03:07:09.040Z,47.13
2019-04-26T03:08:09.035Z,47.23
2019-04-26T03:09:09.053Z,47.99
2019-04-26T03:10:09.063Z,47.71
2019-04-26T03:11:08.992Z,47.80
2019-04-26T03:12:08.979Z,47.89
2019-04-26T03:13:08.968Z,47.80
2019-04-26T03:14:08.950Z,48.09
2019-04-26T03:15:14.009Z,47.80
2019-04-26T03:16:08.940Z,48.28
2019-04-26T03:17:08.925Z,48.47
2019-04-26T03:18:08.914Z,48.47
2019-04-26T03:19:08.899Z,48.47
2019-04-26T03:20:08.884Z,48.28
2019-04-26T03:21:08.871Z,49.23
2019-04-26T03:22:08.859Z,49.43
2019-04-26T03:23:08.861Z,49.23
2019-04-26T03:24:08.837Z,49.43
2019-04-26T03:25:08.823Z,49.33
2019-04-26T03:26:08.811Z,48.95
2019-04-26T03:27:08.800Z,49.23
2019-04-26T03:28:08.790Z,49.52
2019-04-26T03:29:08.780Z,49.90
2019-04-26T03:30:19.938Z,49.78
2019-04-26T03:31:08.752Z,49.90
2019-04-26T03:32:15.552Z,49.71
2019-04-26T03:33:08.836Z,49.90
2019-04-26T03:34:09.241Z,49.71
2019-04-26T03:35:08.764Z,50.35
2019-04-26T03:36:08.690Z,53.03
2019-04-26T03:37:20.211Z,54.44
2019-04-26T03:38:08.668Z,54.72
2019-04-26T03:39:08.650Z,55.49
2019-04-26T03:40:08.652Z,56.51
2019-04-26T03:41:08.626Z,56.60
2019-04-26T03:42:08.621Z,57.18
2019-04-26T03:43:08.609Z,57.65
2019-04-26T03:44:08.605Z,58.23
2019-04-26T03:45:08.591Z,58.58
2019-04-26T03:46:08.567Z,59.06
2019-04-26T03:47:08.562Z,59.92
2019-04-26T03:48:08.556Z,60.46
2019-04-26T03:49:08.532Z,60.65
2019-04-26T03:50:08.514Z,61.70
2019-04-26T03:51:08.516Z,61.80
2019-04-26T03:52:08.495Z,62.08
2019-04-26T03:53:08.476Z,62.46
2019-04-26T03:54:08.471Z,63.20
2019-04-26T03:55:08.458Z,63.48
2019-04-26T03:56:08.448Z,64.91
2019-04-26T03:57:08.435Z,65.10
2019-04-26T03:58:08.416Z,65.67
2019-04-26T03:59:08.409Z,65.48
2019-04-26T04:00:08.386Z,65.48
2019-04-26T04:01:08.380Z,66.05
2019-04-26T04:02:08.374Z,66.78
2019-04-26T04:03:08.350Z,67.64
2019-04-26T04:04:08.339Z,66.59
2019-04-26T04:05:08.330Z,67.64
2019-04-26T04:06:08.321Z,67.45
2019-04-26T04:07:08.317Z,67.93
2019-04-26T04:08:08.309Z,67.83
2019-04-26T04:09:08.284Z,67.83
2019-04-26T04:10:08.263Z,67.64
2019-04-26T04:11:08.254Z,67.55
2019-04-26T04:12:11.869Z,68.21
2019-04-26T04:13:08.228Z,68.40
2019-04-26T04:14:08.268Z,68.69
2019-04-26T04:15:08.208Z,68.69
2019-04-26T04:16:08.191Z,68.78
2019-04-26T04:17:08.193Z,69.17
2019-04-26T04:18:08.160Z,69.17
2019-04-26T04:19:08.152Z,69.64
2019-04-26T04:20:08.138Z,69.74
2019-04-26T04:21:08.117Z,69.93
2019-04-26T04:22:08.110Z,70.97
2019-04-26T04:23:08.094Z,70.88
2019-04-26T04:24:08.113Z,70.27
2019-04-26T04:25:08.071Z,70.31
2019-04-26T04:26:08.056Z,70.75
2019-04-26T04:27:08.059Z,70.88
2019-04-26T04:28:08.027Z,71.42
2019-04-26T04:29:08.020Z,71.13
2019-04-26T04:30:08.010Z,71.70
2019-04-26T04:31:07.988Z,72.17
2019-04-26T04:32:08.007Z,72.65
2019-04-26T04:33:07.957Z,72.08
2019-04-26T04:34:07.946Z,71.98
2019-04-26T04:35:07.938Z,72.65
2019-04-26T04:36:07.943Z,72.46
2019-04-26T04:37:07.937Z,72.56
2019-04-26T04:38:09.838Z,72.37
2019-04-26T04:39:12.191Z,72.75
2019-04-26T04:40:07.877Z,72.56
2019-04-26T04:41:08.552Z,72.17
2019-04-26T04:42:07.841Z,72.08
2019-04-26T04:43:07.916Z,72.08
2019-04-26T04:44:07.816Z,72.17
2019-04-26T04:45:07.802Z,71.70
2019-04-26T04:46:07.942Z,72.12
2019-04-26T04:47:22.778Z,72.75
2019-04-26T04:48:07.762Z,72.94
2019-04-26T04:49:07.755Z,73.03
2019-04-26T04:50:07.736Z,73.22
2019-04-26T04:51:07.726Z,73.32
2019-04-26T04:52:07.705Z,73.32
2019-04-26T04:53:07.705Z,73.22
2019-04-26T04:54:07.681Z,73.07
2019-04-26T04:55:08.218Z,72.85
2019-04-26T04:56:07.655Z,72.65
2019-04-26T04:57:07.641Z,72.56
2019-04-26T04:58:07.628Z,72.75
2019-04-26T04:59:07.612Z,72.17
2019-04-26T05:00:07.602Z,72.17
2019-04-26T05:01:07.587Z,72.08
2019-04-26T05:02:07.571Z,72.65
2019-04-26T05:03:07.563Z,72.85
2019-04-26T05:04:07.547Z,72.85
2019-04-26T05:05:07.533Z,72.85
2019-04-26T05:06:08.021Z,73.61
2019-04-26T05:07:07.505Z,73.61
2019-04-26T05:08:07.497Z,73.41
2019-04-26T05:09:07.480Z,73.80
2019-04-26T05:10:07.465Z,73.89
2019-04-26T05:11:07.450Z,74.18
2019-04-26T05:12:07.435Z,74.80
2019-04-26T05:13:07.424Z,75.67
2019-04-26T05:14:07.404Z,75.85
2019-04-26T05:15:07.399Z,75.95
2019-04-26T05:16:07.387Z,75.70
2019-04-26T05:17:07.377Z,75.95
2019-04-26T05:18:07.359Z,76.18
2019-04-26T05:19:07.346Z,76.90
2019-04-26T05:20:07.332Z,77.32
2019-04-26T05:21:07.314Z,76.81
2019-04-26T05:22:07.300Z,77.66
2019-04-26T05:23:07.290Z,78.04
2019-04-26T05:24:07.284Z,77.85
2019-04-26T05:25:07.262Z,78.71
2019-04-26T05:26:07.247Z,78.90
2019-04-26T05:27:07.245Z,78.42
2019-04-26T05:28:07.221Z,79.09
2019-04-26T05:29:07.205Z,78.61
2019-04-26T05:30:07.192Z,79.09
2019-04-26T05:31:07.173Z,79.38
2019-04-26T05:32:07.164Z,79.75
2019-04-26T05:33:07.150Z,79.05
2019-04-26T05:34:07.135Z,79.09
2019-04-26T05:35:07.120Z,80.04
2019-04-26T05:36:07.117Z,79.72
2019-04-26T05:37:07.090Z,79.75
2019-04-26T05:38:18.017Z,79.81
2019-04-26T05:39:07.070Z,80.66
2019-04-26T05:40:07.057Z,80.47
2019-04-26T05:41:07.039Z,81.81
2019-04-26T05:42:07.023Z,82.05
2019-04-26T05:43:07.011Z,82.71
2019-04-26T05:44:06.995Z,82.71
2019-04-26T05:45:06.982Z,83.00
2019-04-26T05:46:06.966Z,82.62
2019-04-26T05:47:06.957Z,82.91
2019-04-26T05:48:11.463Z,82.71
2019-04-26T05:49:06.936Z,83.00
2019-04-26T05:50:06.915Z,83.00
2019-04-26T05:51:06.900Z,83.00
2019-04-26T05:52:06.899Z,83.48
2019-04-26T05:53:06.876Z,83.76
2019-04-26T05:54:06.854Z,83.29
2019-04-26T05:55:06.842Z,83.48
2019-04-26T05:56:06.830Z,83.19
2019-04-26T05:57:06.824Z,82.81
2019-04-26T05:58:06.806Z,82.91
2019-04-26T05:59:06.792Z,82.91
2019-04-26T06:00:06.771Z,82.81
2019-04-26T06:01:06.759Z,83.58
2019-04-26T06:02:06.739Z,83.39
2019-04-26T06:03:06.732Z,83.86
2019-04-26T06:04:06.709Z,83.29
2019-04-26T06:05:06.701Z,83.67
2019-04-26T06:06:06.697Z,83.58
2019-04-26T06:07:06.666Z,83.48
2019-04-26T06:08:06.652Z,83.67
2019-04-26T06:09:06.633Z,83.58
2019-04-26T06:10:06.622Z,83.48
2019-04-26T06:11:06.604Z,82.91
2019-04-26T06:12:06.596Z,82.62
2019-04-26T06:13:06.590Z,82.62
2019-04-26T06:14:06.580Z,82.81
2019-04-26T06:15:06.555Z,82.81
2019-04-26T06:16:06.537Z,82.71
2019-04-26T06:17:06.527Z,83.19
2019-04-26T06:18:06.513Z,83.48
2019-04-26T06:19:06.493Z,83.67
2019-04-26T06:20:06.489Z,83.58
2019-04-26T06:21:06.471Z,84.05
2019-04-26T06:22:06.451Z,83.58
2019-04-26T06:23:06.438Z,83.67
2019-04-26T06:24:06.434Z,83.76
2019-04-26T06:25:06.412Z,83.58
2019-04-26T06:26:06.392Z,83.48
2019-04-26T06:27:13.704Z,83.00
2019-04-26T06:28:06.366Z,83.58
2019-04-26T06:29:06.348Z,83.95
2019-04-26T06:30:06.338Z,84.52
2019-04-26T06:31:06.321Z,84.05
2019-04-26T06:32:06.303Z,84.33
2019-04-26T06:33:06.370Z,84.52
2019-04-26T06:34:06.286Z,84.62
2019-04-26T06:35:06.266Z,84.33
2019-04-26T06:36:06.300Z,85.00
2019-04-26T06:37:06.247Z,84.72
2019-04-26T06:38:06.221Z,84.72
2019-04-26T06:39:06.198Z,84.24
2019-04-26T06:40:06.186Z,83.48
2019-04-26T06:41:06.172Z,83.86
2019-04-26T06:42:06.159Z,83.48
2019-04-26T06:43:06.151Z,83.19
2019-04-26T06:44:06.132Z,83.10
2019-04-26T06:45:06.112Z,83.71
2019-04-26T06:46:06.100Z,83.67
2019-04-26T06:47:06.723Z,83.67
2019-04-26T06:48:06.131Z,83.95
2019-04-26T06:49:06.060Z,83.48
2019-04-26T06:50:06.043Z,83.90
2019-04-26T06:51:06.926Z,84.00
2019-04-26T06:52:08.420Z,83.52
2019-04-26T06:53:06.271Z,83.23
2019-04-26T06:54:05.986Z,83.23
2019-04-26T06:55:06.791Z,83.04
2019-04-26T06:56:05.960Z,83.62
2019-04-26T06:57:10.618Z,83.52
2019-04-26T06:58:07.162Z,83.52
2019-04-26T06:59:05.932Z,84.09
2019-04-26T07:00:06.642Z,84.00
2019-04-26T07:01:05.884Z,83.48
2019-04-26T07:02:06.170Z,83.48
2019-04-26T07:03:05.854Z,83.58
2019-04-26T07:04:05.841Z,83.48
2019-04-26T07:05:06.909Z,84.33
2019-04-26T07:06:06.588Z,84.05
2019-04-26T07:07:05.794Z,83.86
2019-04-26T07:08:06.835Z,85.10
2019-04-26T07:09:05.759Z,84.91
2019-04-26T07:10:06.283Z,85.47
2019-04-26T07:11:06.845Z,85.47
2019-04-26T07:12:05.721Z,85.10
2019-04-26T07:13:05.709Z,85.47
2019-04-26T07:14:06.831Z,85.86
2019-04-26T07:15:05.845Z,85.95
2019-04-26T07:16:17.757Z,85.57
2019-04-26T07:17:05.650Z,85.28
2019-04-26T07:18:06.407Z,85.47
2019-04-26T07:19:05.694Z,85.38
2019-04-26T07:20:06.045Z,85.47
2019-04-26T07:21:05.594Z,86.24
2019-04-26T07:22:06.196Z,86.33
2019-04-26T07:23:05.897Z,86.90
2019-04-26T07:24:05.601Z,86.61
2019-04-26T07:25:05.969Z,87.19
2019-04-26T07:26:05.917Z,86.90
2019-04-26T07:27:05.589Z,87.28
2019-04-26T07:28:08.113Z,86.86
2019-04-26T07:29:06.741Z,86.90
2019-04-26T07:30:05.534Z,86.99
2019-04-26T07:31:06.194Z,86.47
2019-04-26T07:32:05.431Z,86.33
2019-04-26T07:33:06.262Z,86.24
2019-04-26T07:34:05.399Z,86.33
2019-04-26T07:35:06.626Z,86.24
2019-04-26T07:36:05.605Z,86.05
2019-04-26T07:37:05.362Z,86.33
2019-04-26T07:38:05.340Z,86.43
2019-04-26T07:39:15.675Z,86.43
2019-04-26T07:40:05.322Z,86.71
2019-04-26T07:41:05.301Z,86.24
2019-04-26T07:42:05.288Z,86.61
2019-04-26T07:43:06.030Z,86.99
2019-04-26T07:44:05.585Z,86.43
2019-04-26T07:45:05.583Z,86.80
2019-04-26T07:46:05.854Z,86.33
2019-04-26T07:47:05.990Z,86.33
2019-04-26T07:48:05.193Z,86.71
2019-04-26T07:49:05.973Z,86.33
2019-04-26T07:50:05.169Z,86.33
2019-04-26T07:51:06.392Z,86.33
2019-04-26T07:52:06.312Z,86.05
2019-04-26T07:53:05.135Z,86.14
2019-04-26T07:54:05.119Z,86.05
2019-04-26T07:55:05.088Z,86.43
2019-04-26T07:56:05.078Z,85.95
2019-04-26T07:57:05.055Z,86.28
2019-04-26T07:58:05.275Z,86.57
2019-04-26T07:59:06.009Z,86.47
2019-04-26T08:00:05.020Z,86.28
2019-04-26T08:01:05.478Z,85.04
2019-04-26T08:02:05.105Z,85.33
2019-04-26T08:03:05.475Z,85.52
2019-04-26T08:04:05.313Z,84.95
2019-04-26T08:05:05.838Z,83.81
2019-04-26T08:06:05.784Z,83.71
2019-04-26T08:07:06.072Z,83.71
2019-04-26T08:08:05.867Z,84.09
2019-04-26T08:09:06.002Z,83.04
2019-04-26T08:10:05.920Z,82.76
2019-04-26T08:11:06.117Z,83.33
2019-04-26T08:12:05.976Z,83.52
2019-04-26T08:13:06.025Z,82.00
2019-04-26T08:14:06.088Z,79.72
2019-04-26T08:15:06.013Z,79.72
2019-04-26T08:16:05.349Z,80.29
2019-04-26T08:17:05.303Z,80.66
2019-04-26T08:18:05.245Z,80.38
2019-04-26T08:19:05.842Z,79.91
2019-04-26T08:20:07.228Z,79.96
2019-04-26T08:21:10.033Z,80.95
2019-04-26T08:22:14.893Z,81.43
2019-04-26T08:23:09.016Z,81.14
2019-04-26T08:24:05.211Z,80.38
2019-04-26T08:25:06.717Z,80.86
2019-04-26T08:26:05.108Z,81.33
2019-04-26T08:27:13.572Z,81.90
2019-04-26T08:28:05.630Z,83.14
2019-04-26T08:29:06.555Z,83.33
2019-04-26T08:30:10.130Z,83.42
2019-04-26T08:31:06.016Z,81.90
2019-04-26T08:32:04.561Z,82.48
2019-04-26T08:33:07.410Z,83.76
2019-04-26T08:34:04.524Z,84.91
2019-04-26T08:35:08.191Z,86.14
2019-04-26T08:36:04.496Z,87.09
2019-04-26T08:37:04.490Z,88.04
2019-04-26T08:38:07.953Z,88.71
2019-04-26T08:39:04.453Z,89.28
2019-04-26T08:40:04.438Z,88.90
2019-04-26T08:41:04.945Z,88.80
2019-04-26T08:42:04.452Z,88.13
2019-04-26T08:43:04.396Z,87.24
2019-04-26T08:44:05.734Z,87.43
2019-04-26T08:45:08.768Z,88.00
2019-04-26T08:46:04.348Z,88.85
2019-04-26T08:47:06.050Z,89.14
2019-04-26T08:48:04.316Z,88.95
2019-04-26T08:49:06.483Z,88.85
2019-04-26T08:50:04.288Z,88.85
2019-04-26T08:51:04.292Z,89.14
2019-04-26T08:52:13.970Z,89.42
2019-04-26T08:53:04.247Z,89.61
2019-04-26T08:54:04.241Z,89.33
2019-04-26T08:55:04.223Z,89.80
2019-04-26T08:56:04.214Z,89.14
2019-04-26T08:57:04.189Z,89.33
2019-04-26T08:58:04.173Z,88.85
2019-04-26T08:59:04.161Z,89.04
2019-04-26T09:00:04.148Z,89.23
2019-04-26T09:01:04.130Z,88.95
2019-04-26T09:02:04.114Z,89.14
2019-04-26T09:03:11.392Z,89.42
2019-04-26T09:04:04.144Z,88.85
2019-04-26T09:05:04.069Z,88.95
2019-04-26T09:06:04.057Z,88.85
2019-04-26T09:07:04.038Z,88.00
2019-04-26T09:08:04.100Z,88.23
2019-04-26T09:09:04.009Z,87.95
2019-04-26T09:10:10.820Z,88.19
2019-04-26T09:11:03.982Z,87.71
2019-04-26T09:12:08.049Z,87.71
2019-04-26T09:13:03.947Z,86.10
2019-04-26T09:14:03.942Z,84.77
2019-04-26T09:15:03.922Z,84.86
2019-04-26T09:16:03.982Z,85.91
2019-04-26T09:17:03.898Z,87.24
2019-04-26T09:18:06.098Z,88.09
2019-04-26T09:19:03.867Z,87.71
2019-04-26T09:20:07.861Z,87.62
2019-04-26T09:21:03.836Z,87.81
2019-04-26T09:22:12.950Z,87.24
2019-04-26T09:23:04.961Z,86.57
2019-04-26T09:24:03.793Z,85.72
2019-04-26T09:25:03.767Z,85.62
2019-04-26T09:26:03.828Z,85.34
2019-04-26T09:27:03.748Z,85.24
2019-04-26T09:28:03.731Z,85.34
2019-04-26T09:29:03.721Z,85.15
2019-04-26T09:30:04.931Z,85.43
2019-04-26T09:31:03.689Z,85.20
2019-04-26T09:32:03.673Z,85.58
2019-04-26T09:33:03.678Z,86.43
2019-04-26T09:34:06.317Z,85.96
2019-04-26T09:35:03.630Z,85.68
2019-04-26T09:36:03.610Z,85.86
2019-04-26T09:37:03.598Z,85.86
2019-04-26T09:38:03.586Z,85.91
2019-04-26T09:39:03.990Z,86.43
2019-04-26T09:40:10.223Z,85.62
2019-04-26T09:41:03.533Z,85.15
2019-04-26T09:42:05.899Z,85.15
2019-04-26T09:43:03.511Z,85.24
2019-04-26T09:44:03.491Z,84.77
2019-04-26T09:45:03.481Z,84.58
2019-04-26T09:46:03.470Z,84.01
2019-04-26T09:47:03.444Z,84.58
2019-04-26T09:48:03.431Z,84.39
2019-04-26T09:49:07.067Z,83.91
2019-04-26T09:50:03.403Z,83.39
2019-04-26T09:51:03.395Z,84.25
2019-04-26T09:52:03.397Z,84.06
2019-04-26T09:53:03.356Z,84.72
2019-04-26T09:54:03.344Z,84.91
2019-04-26T09:55:03.326Z,84.06
2019-04-26T09:56:03.312Z,84.25
2019-04-26T09:57:03.298Z,83.97
2019-04-26T09:58:03.290Z,84.10
2019-04-26T09:59:05.567Z,83.53
2019-04-26T10:00:03.259Z,83.62
2019-04-26T10:01:06.003Z,84.25
2019-04-26T10:02:03.228Z,84.39
2019-04-26T10:03:05.407Z,83.72
2019-04-26T10:04:03.194Z,83.59
2019-04-26T10:05:03.175Z,83.53
2019-04-26T10:06:03.162Z,83.06
2019-04-26T10:07:04.075Z,82.10
2019-04-26T10:08:03.135Z,82.82
2019-04-26T10:09:03.111Z,82.73
2019-04-26T10:10:03.099Z,82.54
2019-04-26T10:11:05.754Z,82.26
2019-04-26T10:12:03.071Z,82.64
2019-04-26T10:13:03.058Z,82.82
2019-04-26T10:14:03.042Z,83.30
2019-04-26T10:15:03.027Z,83.01
2019-04-26T10:16:04.300Z,83.01
2019-04-26T10:17:02.996Z,83.30
2019-04-26T10:18:02.980Z,83.49
2019-04-26T10:19:02.976Z,83.20
2019-04-26T10:20:02.951Z,83.20
2019-04-26T10:21:02.939Z,82.92
2019-04-26T10:22:02.929Z,82.16
2019-04-26T10:23:02.903Z,82.54
2019-04-26T10:24:02.889Z,83.78
2019-04-26T10:25:08.095Z,83.68
2019-04-26T10:26:02.863Z,83.30
2019-04-26T10:27:03.436Z,83.39
2019-04-26T10:28:02.831Z,82.64
2019-04-26T10:29:02.821Z,82.82
2019-04-26T10:30:07.752Z,83.39
2019-04-26T10:31:02.790Z,83.36
2019-04-26T10:32:02.772Z,83.39
2019-04-26T10:33:03.535Z,84.16
2019-04-26T10:34:02.742Z,83.68
2019-04-26T10:35:02.732Z,83.30
2019-04-26T10:36:02.724Z,83.01
2019-04-26T10:37:06.057Z,82.82
2019-04-26T10:38:02.679Z,83.39
2019-04-26T10:39:02.665Z,83.30
2019-04-26T10:40:02.647Z,83.20
2019-04-26T10:41:02.638Z,83.68
2019-04-26T10:42:02.625Z,83.39
2019-04-26T10:43:02.603Z,82.35
2019-04-26T10:44:02.586Z,82.31
2019-04-26T10:45:02.575Z,82.59
2019-04-26T10:46:02.561Z,82.97
2019-04-26T10:47:04.363Z,82.21
2019-04-26T10:48:02.532Z,81.74
2019-04-26T10:49:08.516Z,81.93
2019-04-26T10:50:02.512Z,83.07
2019-04-26T10:51:03.233Z,83.50
2019-04-26T10:52:02.472Z,83.83
2019-04-26T10:53:02.450Z,83.50
2019-04-26T10:54:05.898Z,83.73
2019-04-26T10:55:02.423Z,83.40
2019-04-26T10:56:02.403Z,82.88
2019-04-26T10:57:02.387Z,82.31
2019-04-26T10:58:02.369Z,81.55
2019-04-26T10:59:02.371Z,81.07
2019-04-26T11:00:02.346Z,80.69
2019-04-26T11:01:02.332Z,79.74
2019-04-26T11:02:02.314Z,79.94
2019-04-26T11:03:04.427Z,79.94
2019-04-26T11:04:02.301Z,80.03
2019-04-26T11:05:02.268Z,80.03
2019-04-26T11:06:02.252Z,79.55
2019-04-26T11:07:03.441Z,79.36
2019-04-26T11:08:02.233Z,80.03
2019-04-26T11:09:02.207Z,80.13
2019-04-26T11:10:03.035Z,79.74
2019-04-26T11:11:02.178Z,80.79
2019-04-26T11:12:02.160Z,80.22
2019-04-26T11:13:02.164Z,79.94
2019-04-26T11:14:02.127Z,79.84
2019-04-26T11:15:02.122Z,80.13
2019-04-26T11:16:02.366Z,79.94
2019-04-26T11:17:02.090Z,79.46
2019-04-26T11:18:02.071Z,78.89
2019-04-26T11:19:02.269Z,78.99
2019-04-26T11:20:02.035Z,78.42
2019-04-26T11:21:02.024Z,78.32
2019-04-26T11:22:02.004Z,78.23
2019-04-26T11:23:01.993Z,78.80
2019-04-26T11:24:01.980Z,78.61
2019-04-26T11:25:01.977Z,78.70
2019-04-26T11:26:02.939Z,78.23
2019-04-26T11:27:05.307Z,78.61
2019-04-26T11:28:01.913Z,78.99
2019-04-26T11:29:01.899Z,78.80
2019-04-26T11:30:11.182Z,79.08
2019-04-26T11:31:01.871Z,78.42
2019-04-26T11:32:02.751Z,78.51
2019-04-26T11:33:01.839Z,77.94
2019-04-26T11:34:05.500Z,78.27
2019-04-26T11:35:02.137Z,78.42
2019-04-26T11:36:03.395Z,78.80
2019-04-26T11:37:01.780Z,79.17
2019-04-26T11:38:01.809Z,79.74
2019-04-26T11:39:05.602Z,79.94
2019-04-26T11:40:01.734Z,79.36
2019-04-26T11:41:06.321Z,79.84
2019-04-26T11:42:01.704Z,79.65
2019-04-26T11:43:01.690Z,79.27
2019-04-26T11:44:01.680Z,79.55
2019-04-26T11:45:06.313Z,79.50
2019-04-26T11:46:04.507Z,79.31
2019-04-26T11:47:03.296Z,78.83
2019-04-26T11:48:03.289Z,78.93
2019-04-26T11:49:03.275Z,79.03
2019-04-26T11:50:01.634Z,79.12
2019-04-26T11:51:01.561Z,78.27
2019-04-26T11:52:02.748Z,78.36
2019-04-26T11:53:01.530Z,78.45
2019-04-26T11:54:01.520Z,78.64
2019-04-26T11:55:01.505Z,78.08
2019-04-26T11:56:04.602Z,77.98
2019-04-26T11:57:01.477Z,78.45
2019-04-26T11:58:01.466Z,78.45
2019-04-26T11:59:01.443Z,78.45
2019-04-26T12:00:05.409Z,78.08
2019-04-26T12:01:01.414Z,78.17
2019-04-26T12:02:01.402Z,77.73
2019-04-26T12:03:01.389Z,77.92
2019-04-26T12:04:01.370Z,76.88
2019-04-26T12:05:01.362Z,76.03
2019-04-26T12:06:01.339Z,75.84
2019-04-26T12:07:01.321Z,75.17
2019-04-26T12:08:01.307Z,75.55
2019-04-26T12:09:01.293Z,76.03
2019-04-26T12:10:01.284Z,76.40
2019-04-26T12:11:01.262Z,77.07
2019-04-26T12:12:04.806Z,76.88
2019-04-26T12:13:06.025Z,76.40
2019-04-26T12:14:03.853Z,77.26
2019-04-26T12:15:03.846Z,77.12
2019-04-26T12:16:01.189Z,77.79
2019-04-26T12:17:01.381Z,78.17
2019-04-26T12:18:01.229Z,78.64
2019-04-26T12:19:01.144Z,79.50
2019-04-26T12:20:01.129Z,79.88
2019-04-26T12:21:02.112Z,80.32
2019-04-26T12:22:04.386Z,81.17
2019-04-26T12:23:01.081Z,81.55
2019-04-26T12:24:01.066Z,81.74
2019-04-26T12:25:03.376Z,81.70
2019-04-26T12:26:01.042Z,82.08
2019-04-26T12:27:01.060Z,82.65
2019-04-26T12:28:01.941Z,83.50
2019-04-26T12:29:00.996Z,83.78
2019-04-26T12:30:00.975Z,83.74
2019-04-26T12:31:00.963Z,84.59
2019-04-26T12:32:00.947Z,84.78
2019-04-26T12:33:00.932Z,84.78
2019-04-26T12:34:00.913Z,84.78
2019-04-26T12:35:00.901Z,84.41
2019-04-26T12:36:00.893Z,83.84
2019-04-26T12:37:00.861Z,84.12
2019-04-26T12:38:00.854Z,83.74
2019-04-26T12:39:02.144Z,83.84
2019-04-26T12:40:00.820Z,84.31
2019-04-26T12:41:00.804Z,84.03
2019-04-26T12:42:00.796Z,83.36
2019-04-26T12:43:00.778Z,83.46
2019-04-26T12:44:03.254Z,83.55
2019-04-26T12:45:00.742Z,82.79
2019-04-26T12:46:00.727Z,83.65
2019-04-26T12:47:03.437Z,83.84
2019-04-26T12:48:00.695Z,83.65
2019-04-26T12:49:00.696Z,83.08
2019-04-26T12:50:00.671Z,83.65
2019-04-26T12:51:00.651Z,83.46
2019-04-26T12:52:00.632Z,83.65